sensor_id;sensor_type;location;lat;lon;timestamp;P1;durP1;ratioP1;P2;durP2;ratioP2
51216;SDS011;37283;49.760;8.648;2022-09-03T00:01:33;5.70;;;1.00;;
51216;SDS011;37283;49.760;8.648;2022-09-03T00:04:07;2.63;;;1.10;;
51216;SDS011;37283;49.760;8.648;2022-09-03T00:06:39;3.58;;;1.00;;
51216;SDS011;37283;49.760;8.648;2022-09-03T00:09:11;2.50;;;0.80;;
51216;SDS011;37283;49.760;8.648;2022-09-03T00:11:51;2.20;;;0.90;;
51216;SDS011;37283;49.760;8.648;2022-09-03T00:14:25;3.17;;;1.00;;
51216;SDS011;37283;49.760;8.648;2022-09-03T00:17:10;3.17;;;0.90;;
51216;SDS011;37283;49.760;8.648;2022-09-03T00:19:54;1.88;;;0.90;;
51216;SDS011;37283;49.760;8.648;2022-09-03T00:22:23;1.95;;;0.80;;
51216;SDS011;37283;49.760;8.648;2022-09-03T00:24:52;2.80;;;0.77;;
51216;SDS011;37283;49.760;8.648;2022-09-03T00:27:21;4.82;;;0.90;;
51216;SDS011;37283;49.760;8.648;2022-09-03T00:32:36;2.78;;;0.88;;
51216;SDS011;37283;49.760;8.648;2022-09-03T00:35:06;2.50;;;0.77;;
51216;SDS011;37283;49.760;8.648;2022-09-03T00:37:39;4.05;;;0.90;;
51216;SDS011;37283;49.760;8.648;2022-09-03T00:40:09;2.08;;;0.80;;
51216;SDS011;37283;49.760;8.648;2022-09-03T00:43:20;1.08;;;0.70;;
51216;SDS011;37283;49.760;8.648;2022-09-03T00:45:56;2.83;;;0.90;;
51216;SDS011;37283;49.760;8.648;2022-09-03T00:51:11;1.80;;;1.25;;
51216;SDS011;37283;49.760;8.648;2022-09-03T00:59:25;1.88;;;0.82;;
51216;SDS011;37283;49.760;8.648;2022-09-03T01:17:50;4.45;;;0.80;;
51216;SDS011;37283;49.760;8.648;2022-09-03T01:26:26;1.95;;;0.88;;
51216;SDS011;37283;49.760;8.648;2022-09-03T01:35:28;2.38;;;0.93;;
51216;SDS011;37283;49.760;8.648;2022-09-03T01:38:09;2.53;;;0.90;;
51216;SDS011;37283;49.760;8.648;2022-09-03T01:40:49;2.05;;;0.90;;
51216;SDS011;37283;49.760;8.648;2022-09-03T01:46:39;3.15;;;1.10;;
51216;SDS011;37283;49.760;8.648;2022-09-03T01:51:42;1.02;;;0.80;;
51216;SDS011;37283;49.760;8.648;2022-09-03T02:00:08;1.13;;;0.82;;
51216;SDS011;37283;49.760;8.648;2022-09-03T02:02:46;3.22;;;0.80;;
51216;SDS011;37283;49.760;8.648;2022-09-03T02:05:20;2.70;;;1.00;;
51216;SDS011;37283;49.760;8.648;2022-09-03T02:15:56;1.80;;;0.85;;
51216;SDS011;37283;49.760;8.648;2022-09-03T02:18:28;11.07;;;1.13;;
51216;SDS011;37283;49.760;8.648;2022-09-03T02:20:56;3.20;;;0.82;;
51216;SDS011;37283;49.760;8.648;2022-09-03T02:23:24;3.63;;;1.05;;
51216;SDS011;37283;49.760;8.648;2022-09-03T02:28:24;1.52;;;0.80;;
51216;SDS011;37283;49.760;8.648;2022-09-03T02:30:52;3.63;;;1.05;;
51216;SDS011;37283;49.760;8.648;2022-09-03T02:33:18;3.13;;;0.85;;
51216;SDS011;37283;49.760;8.648;2022-09-03T02:35:45;1.70;;;0.90;;
51216;SDS011;37283;49.760;8.648;2022-09-03T02:38:14;3.08;;;1.10;;
51216;SDS011;37283;49.760;8.648;2022-09-03T02:40:42;7.30;;;1.02;;
51216;SDS011;37283;49.760;8.648;2022-09-03T02:43:12;2.13;;;0.77;;
51216;SDS011;37283;49.760;8.648;2022-09-03T02:45:44;1.63;;;0.90;;
51216;SDS011;37283;49.760;8.648;2022-09-03T02:48:12;1.77;;;0.98;;
51216;SDS011;37283;49.760;8.648;2022-09-03T02:50:42;4.10;;;1.08;;
51216;SDS011;37283;49.760;8.648;2022-09-03T02:53:09;1.25;;;0.80;;
51216;SDS011;37283;49.760;8.648;2022-09-03T02:55:35;1.65;;;0.90;;
51216;SDS011;37283;49.760;8.648;2022-09-03T02:58:02;1.83;;;1.00;;
51216;SDS011;37283;49.760;8.648;2022-09-03T03:00:31;3.60;;;0.80;;
51216;SDS011;37283;49.760;8.648;2022-09-03T03:02:58;2.47;;;0.80;;
51216;SDS011;37283;49.760;8.648;2022-09-03T03:05:25;2.33;;;0.80;;
51216;SDS011;37283;49.760;8.648;2022-09-03T03:07:57;2.00;;;0.80;;
51216;SDS011;37283;49.760;8.648;2022-09-03T03:10:24;2.03;;;0.93;;
51216;SDS011;37283;49.760;8.648;2022-09-03T03:12:50;2.35;;;0.90;;
51216;SDS011;37283;49.760;8.648;2022-09-03T03:15:17;5.78;;;1.00;;
51216;SDS011;37283;49.760;8.648;2022-09-03T03:17:44;3.63;;;1.10;;
51216;SDS011;37283;49.760;8.648;2022-09-03T03:20:11;5.72;;;1.00;;
51216;SDS011;37283;49.760;8.648;2022-09-03T03:22:37;1.52;;;0.77;;
51216;SDS011;37283;49.760;8.648;2022-09-03T03:25:04;2.03;;;0.80;;
51216;SDS011;37283;49.760;8.648;2022-09-03T03:27:30;2.03;;;0.90;;
51216;SDS011;37283;49.760;8.648;2022-09-03T03:29:57;1.55;;;0.90;;
51216;SDS011;37283;49.760;8.648;2022-09-03T03:32:23;1.80;;;0.80;;
51216;SDS011;37283;49.760;8.648;2022-09-03T03:34:50;2.85;;;0.98;;
51216;SDS011;37283;49.760;8.648;2022-09-03T03:37:16;1.67;;;1.20;;
51216;SDS011;37283;49.760;8.648;2022-09-03T03:39:43;2.08;;;1.00;;
51216;SDS011;37283;49.760;8.648;2022-09-03T03:42:09;2.53;;;0.73;;
51216;SDS011;37283;49.760;8.648;2022-09-03T03:44:36;3.50;;;0.93;;
51216;SDS011;37283;49.760;8.648;2022-09-03T03:47:03;4.03;;;1.15;;
51216;SDS011;37283;49.760;8.648;2022-09-03T03:49:31;1.93;;;0.97;;
51216;SDS011;37283;49.760;8.648;2022-09-03T03:51:57;1.83;;;0.90;;
51216;SDS011;37283;49.760;8.648;2022-09-03T03:54:24;1.35;;;0.80;;
51216;SDS011;37283;49.760;8.648;2022-09-03T03:56:50;0.88;;;0.75;;
51216;SDS011;37283;49.760;8.648;2022-09-03T03:59:21;4.50;;;0.90;;
51216;SDS011;37283;49.760;8.648;2022-09-03T04:01:47;2.25;;;1.08;;
51216;SDS011;37283;49.760;8.648;2022-09-03T04:04:15;1.58;;;0.90;;
51216;SDS011;37283;49.760;8.648;2022-09-03T04:06:42;4.38;;;0.93;;
51216;SDS011;37283;49.760;8.648;2022-09-03T04:09:08;3.55;;;0.90;;
51216;SDS011;37283;49.760;8.648;2022-09-03T04:11:35;1.58;;;0.82;;
51216;SDS011;37283;49.760;8.648;2022-09-03T04:14:02;1.50;;;0.90;;
51216;SDS011;37283;49.760;8.648;2022-09-03T04:16:28;1.75;;;0.75;;
51216;SDS011;37283;49.760;8.648;2022-09-03T04:18:55;1.23;;;0.80;;
51216;SDS011;37283;49.760;8.648;2022-09-03T04:21:23;1.88;;;0.80;;
51216;SDS011;37283;49.760;8.648;2022-09-03T04:23:54;3.53;;;0.73;;
51216;SDS011;37283;49.760;8.648;2022-09-03T04:26:24;1.40;;;0.73;;
51216;SDS011;37283;49.760;8.648;2022-09-03T04:28:58;2.28;;;0.90;;
51216;SDS011;37283;49.760;8.648;2022-09-03T04:31:26;1.80;;;0.88;;
51216;SDS011;37283;49.760;8.648;2022-09-03T04:33:53;2.15;;;0.80;;
51216;SDS011;37283;49.760;8.648;2022-09-03T04:36:21;2.33;;;1.20;;
51216;SDS011;37283;49.760;8.648;2022-09-03T04:38:49;3.33;;;1.00;;
51216;SDS011;37283;49.760;8.648;2022-09-03T04:41:17;1.13;;;0.93;;
51216;SDS011;37283;49.760;8.648;2022-09-03T04:43:50;3.20;;;1.00;;
51216;SDS011;37283;49.760;8.648;2022-09-03T04:46:18;1.27;;;0.88;;
51216;SDS011;37283;49.760;8.648;2022-09-03T04:48:46;2.97;;;1.00;;
51216;SDS011;37283;49.760;8.648;2022-09-03T04:51:17;3.83;;;1.00;;
51216;SDS011;37283;49.760;8.648;2022-09-03T04:53:46;2.35;;;0.90;;
51216;SDS011;37283;49.760;8.648;2022-09-03T04:56:14;0.98;;;0.80;;
51216;SDS011;37283;49.760;8.648;2022-09-03T04:58:41;3.45;;;1.00;;
51216;SDS011;37283;49.760;8.648;2022-09-03T05:01:10;2.67;;;1.00;;
51216;SDS011;37283;49.760;8.648;2022-09-03T05:03:38;1.98;;;1.00;;
51216;SDS011;37283;49.760;8.648;2022-09-03T05:06:04;2.97;;;1.00;;
51216;SDS011;37283;49.760;8.648;2022-09-03T05:08:32;3.15;;;1.00;;
51216;SDS011;37283;49.760;8.648;2022-09-03T05:11:03;2.30;;;1.10;;
51216;SDS011;37283;49.760;8.648;2022-09-03T05:13:30;1.92;;;1.00;;
51216;SDS011;37283;49.760;8.648;2022-09-03T05:16:00;1.67;;;0.90;;
51216;SDS011;37283;49.760;8.648;2022-09-03T05:18:32;4.15;;;1.27;;
51216;SDS011;37283;49.760;8.648;2022-09-03T05:21:01;2.85;;;1.10;;
51216;SDS011;37283;49.760;8.648;2022-09-03T05:23:30;7.65;;;2.25;;
51216;SDS011;37283;49.760;8.648;2022-09-03T05:26:03;1.20;;;0.95;;
51216;SDS011;37283;49.760;8.648;2022-09-03T05:28:37;3.47;;;0.90;;
51216;SDS011;37283;49.760;8.648;2022-09-03T05:33:33;1.15;;;0.80;;
51216;SDS011;37283;49.760;8.648;2022-09-03T05:36:04;1.27;;;0.80;;
51216;SDS011;37283;49.760;8.648;2022-09-03T05:38:33;2.25;;;1.00;;
51216;SDS011;37283;49.760;8.648;2022-09-03T05:41:00;3.15;;;1.00;;
51216;SDS011;37283;49.760;8.648;2022-09-03T05:43:30;1.83;;;0.95;;
51216;SDS011;37283;49.760;8.648;2022-09-03T05:45:58;1.75;;;1.08;;
51216;SDS011;37283;49.760;8.648;2022-09-03T05:48:26;3.38;;;1.00;;
51216;SDS011;37283;49.760;8.648;2022-09-03T05:50:57;3.60;;;1.42;;
51216;SDS011;37283;49.760;8.648;2022-09-03T05:53:28;4.90;;;1.50;;
51216;SDS011;37283;49.760;8.648;2022-09-03T05:55:56;3.30;;;1.20;;
51216;SDS011;37283;49.760;8.648;2022-09-03T05:58:24;2.70;;;1.50;;
51216;SDS011;37283;49.760;8.648;2022-09-03T06:00:51;2.88;;;1.40;;
51216;SDS011;37283;49.760;8.648;2022-09-03T06:03:18;2.88;;;1.25;;
51216;SDS011;37283;49.760;8.648;2022-09-03T06:05:49;4.03;;;1.33;;
51216;SDS011;37283;49.760;8.648;2022-09-03T06:08:16;4.18;;;1.50;;
51216;SDS011;37283;49.760;8.648;2022-09-03T06:10:43;3.35;;;1.45;;
51216;SDS011;37283;49.760;8.648;2022-09-03T06:13:10;2.45;;;1.20;;
51216;SDS011;37283;49.760;8.648;2022-09-03T06:15:37;3.00;;;1.40;;
51216;SDS011;37283;49.760;8.648;2022-09-03T06:18:03;2.45;;;1.30;;
51216;SDS011;37283;49.760;8.648;2022-09-03T06:20:30;2.33;;;1.60;;
51216;SDS011;37283;49.760;8.648;2022-09-03T06:23:02;3.53;;;1.67;;
51216;SDS011;37283;49.760;8.648;2022-09-03T06:25:29;2.50;;;1.58;;
51216;SDS011;37283;49.760;8.648;2022-09-03T06:27:57;2.70;;;1.50;;
51216;SDS011;37283;49.760;8.648;2022-09-03T06:30:24;2.60;;;1.48;;
51216;SDS011;37283;49.760;8.648;2022-09-03T06:32:52;2.58;;;1.30;;
51216;SDS011;37283;49.760;8.648;2022-09-03T06:35:19;3.60;;;1.30;;
51216;SDS011;37283;49.760;8.648;2022-09-03T06:37:45;3.03;;;1.60;;
51216;SDS011;37283;49.760;8.648;2022-09-03T06:40:12;2.80;;;1.50;;
51216;SDS011;37283;49.760;8.648;2022-09-03T06:42:39;2.60;;;1.27;;
51216;SDS011;37283;49.760;8.648;2022-09-03T06:45:11;3.97;;;1.40;;
51216;SDS011;37283;49.760;8.648;2022-09-03T06:47:37;2.17;;;1.38;;
51216;SDS011;37283;49.760;8.648;2022-09-03T06:50:04;1.55;;;1.20;;
51216;SDS011;37283;49.760;8.648;2022-09-03T06:52:31;2.03;;;1.50;;
51216;SDS011;37283;49.760;8.648;2022-09-03T06:54:57;2.33;;;1.50;;
51216;SDS011;37283;49.760;8.648;2022-09-03T06:57:24;2.13;;;1.48;;
51216;SDS011;37283;49.760;8.648;2022-09-03T06:59:50;3.17;;;1.45;;
51216;SDS011;37283;49.760;8.648;2022-09-03T07:02:19;4.82;;;1.45;;
51216;SDS011;37283;49.760;8.648;2022-09-03T07:04:48;2.43;;;1.67;;
51216;SDS011;37283;49.760;8.648;2022-09-03T07:07:15;2.65;;;1.27;;
51216;SDS011;37283;49.760;8.648;2022-09-03T07:09:41;2.58;;;1.40;;
51216;SDS011;37283;49.760;8.648;2022-09-03T07:12:13;2.55;;;1.50;;
51216;SDS011;37283;49.760;8.648;2022-09-03T07:14:42;4.50;;;1.80;;
51216;SDS011;37283;49.760;8.648;2022-09-03T07:17:08;2.67;;;1.58;;
51216;SDS011;37283;49.760;8.648;2022-09-03T07:19:34;2.13;;;1.52;;
51216;SDS011;37283;49.760;8.648;2022-09-03T07:22:01;1.58;;;1.23;;
51216;SDS011;37283;49.760;8.648;2022-09-03T07:24:27;1.98;;;1.52;;
51216;SDS011;37283;49.760;8.648;2022-09-03T07:26:54;2.40;;;1.30;;
51216;SDS011;37283;49.760;8.648;2022-09-03T07:29:23;2.28;;;1.25;;
51216;SDS011;37283;49.760;8.648;2022-09-03T07:31:49;2.38;;;1.40;;
51216;SDS011;37283;49.760;8.648;2022-09-03T07:34:17;3.10;;;1.70;;
51216;SDS011;37283;49.760;8.648;2022-09-03T07:36:45;2.80;;;1.50;;
51216;SDS011;37283;49.760;8.648;2022-09-03T07:41:41;2.72;;;1.40;;
51216;SDS011;37283;49.760;8.648;2022-09-03T07:44:14;3.70;;;1.65;;
51216;SDS011;37283;49.760;8.648;2022-09-03T07:46:44;3.13;;;1.70;;
51216;SDS011;37283;49.760;8.648;2022-09-03T07:49:12;3.95;;;1.75;;
51216;SDS011;37283;49.760;8.648;2022-09-03T07:51:38;3.00;;;1.60;;
51216;SDS011;37283;49.760;8.648;2022-09-03T07:54:06;3.45;;;1.50;;
51216;SDS011;37283;49.760;8.648;2022-09-03T07:56:35;2.65;;;1.58;;
51216;SDS011;37283;49.760;8.648;2022-09-03T07:59:02;3.25;;;1.85;;
51216;SDS011;37283;49.760;8.648;2022-09-03T08:01:30;1.83;;;1.45;;
51216;SDS011;37283;49.760;8.648;2022-09-03T08:03:58;3.90;;;1.88;;
51216;SDS011;37283;49.760;8.648;2022-09-03T08:06:25;2.47;;;1.70;;
51216;SDS011;37283;49.760;8.648;2022-09-03T08:08:56;2.53;;;1.75;;
51216;SDS011;37283;49.760;8.648;2022-09-03T08:11:30;6.35;;;2.10;;
51216;SDS011;37283;49.760;8.648;2022-09-03T08:14:10;3.05;;;2.13;;
51216;SDS011;37283;49.760;8.648;2022-09-03T08:16:38;2.95;;;2.10;;
51216;SDS011;37283;49.760;8.648;2022-09-03T08:19:07;3.25;;;2.00;;
51216;SDS011;37283;49.760;8.648;2022-09-03T08:21:34;3.55;;;2.00;;
51216;SDS011;37283;49.760;8.648;2022-09-03T08:24:00;4.07;;;2.25;;
51216;SDS011;37283;49.760;8.648;2022-09-03T08:28:57;2.85;;;1.73;;
51216;SDS011;37283;49.760;8.648;2022-09-03T08:31:24;4.97;;;2.22;;
51216;SDS011;37283;49.760;8.648;2022-09-03T08:33:53;6.50;;;2.05;;
51216;SDS011;37283;49.760;8.648;2022-09-03T08:36:27;4.32;;;2.03;;
51216;SDS011;37283;49.760;8.648;2022-09-03T08:38:56;3.78;;;2.00;;
51216;SDS011;37283;49.760;8.648;2022-09-03T08:41:32;4.97;;;1.80;;
51216;SDS011;37283;49.760;8.648;2022-09-03T08:44:08;3.55;;;2.08;;
51216;SDS011;37283;49.760;8.648;2022-09-03T08:52:25;4.05;;;1.90;;
51216;SDS011;37283;49.760;8.648;2022-09-03T08:57:56;3.90;;;2.25;;
51216;SDS011;37283;49.760;8.648;2022-09-03T09:03:19;4.43;;;2.20;;
51216;SDS011;37283;49.760;8.648;2022-09-03T09:05:55;3.85;;;2.10;;
51216;SDS011;37283;49.760;8.648;2022-09-03T09:08:47;2.72;;;2.15;;
51216;SDS011;37283;49.760;8.648;2022-09-03T09:11:27;2.83;;;2.00;;
51216;SDS011;37283;49.760;8.648;2022-09-03T09:14:22;2.92;;;2.33;;
51216;SDS011;37283;49.760;8.648;2022-09-03T09:19:41;2.80;;;2.13;;
51216;SDS011;37283;49.760;8.648;2022-09-03T09:22:28;4.93;;;2.20;;
51216;SDS011;37283;49.760;8.648;2022-09-03T09:24:58;3.35;;;2.10;;
51216;SDS011;37283;49.760;8.648;2022-09-03T09:27:27;3.58;;;2.38;;
51216;SDS011;37283;49.760;8.648;2022-09-03T09:29:54;4.30;;;2.40;;
51216;SDS011;37283;49.760;8.648;2022-09-03T09:32:27;6.00;;;2.45;;
51216;SDS011;37283;49.760;8.648;2022-09-03T09:34:54;4.68;;;2.50;;
51216;SDS011;37283;49.760;8.648;2022-09-03T09:37:20;3.97;;;2.00;;
51216;SDS011;37283;49.760;8.648;2022-09-03T09:39:57;5.03;;;2.35;;
51216;SDS011;37283;49.760;8.648;2022-09-03T09:42:25;6.07;;;3.40;;
51216;SDS011;37283;49.760;8.648;2022-09-03T09:44:52;4.18;;;2.35;;
51216;SDS011;37283;49.760;8.648;2022-09-03T09:47:26;4.72;;;2.47;;
51216;SDS011;37283;49.760;8.648;2022-09-03T09:49:58;7.28;;;2.75;;
51216;SDS011;37283;49.760;8.648;2022-09-03T09:52:25;4.10;;;2.45;;
51216;SDS011;37283;49.760;8.648;2022-09-03T09:55:14;5.82;;;2.60;;
51216;SDS011;37283;49.760;8.648;2022-09-03T09:57:42;4.03;;;2.33;;
51216;SDS011;37283;49.760;8.648;2022-09-03T10:00:10;4.88;;;2.60;;
51216;SDS011;37283;49.760;8.648;2022-09-03T10:02:39;4.63;;;2.28;;
51216;SDS011;37283;49.760;8.648;2022-09-03T10:05:13;4.78;;;2.30;;
51216;SDS011;37283;49.760;8.648;2022-09-03T10:07:53;4.72;;;2.80;;
51216;SDS011;37283;49.760;8.648;2022-09-03T10:10:20;7.07;;;2.75;;
51216;SDS011;37283;49.760;8.648;2022-09-03T10:13:23;4.75;;;2.58;;
51216;SDS011;37283;49.760;8.648;2022-09-03T10:15:48;4.43;;;2.53;;
51216;SDS011;37283;49.760;8.648;2022-09-03T10:18:39;4.47;;;2.90;;
51216;SDS011;37283;49.760;8.648;2022-09-03T10:21:17;5.38;;;2.90;;
51216;SDS011;37283;49.760;8.648;2022-09-03T10:26:22;5.45;;;3.03;;
51216;SDS011;37283;49.760;8.648;2022-09-03T10:29:02;4.53;;;2.78;;
51216;SDS011;37283;49.760;8.648;2022-09-03T10:34:56;4.05;;;2.80;;
51216;SDS011;37283;49.760;8.648;2022-09-03T10:59:27;4.35;;;3.20;;
51216;SDS011;37283;49.760;8.648;2022-09-03T11:04:55;4.53;;;2.70;;
51216;SDS011;37283;49.760;8.648;2022-09-03T11:07:48;4.88;;;2.78;;
51216;SDS011;37283;49.760;8.648;2022-09-03T11:10:24;3.90;;;2.78;;
51216;SDS011;37283;49.760;8.648;2022-09-03T11:15:24;3.53;;;3.03;;
51216;SDS011;37283;49.760;8.648;2022-09-03T11:17:54;4.45;;;2.83;;
51216;SDS011;37283;49.760;8.648;2022-09-03T11:20:25;3.42;;;2.67;;
51216;SDS011;37283;49.760;8.648;2022-09-03T11:22:52;6.20;;;2.88;;
51216;SDS011;37283;49.760;8.648;2022-09-03T11:25:21;4.93;;;2.97;;
51216;SDS011;37283;49.760;8.648;2022-09-03T11:28:02;3.83;;;3.00;;
51216;SDS011;37283;49.760;8.648;2022-09-03T11:30:57;4.43;;;3.10;;
51216;SDS011;37283;49.760;8.648;2022-09-03T11:33:44;4.97;;;3.03;;
51216;SDS011;37283;49.760;8.648;2022-09-03T11:36:19;4.93;;;3.70;;
51216;SDS011;37283;49.760;8.648;2022-09-03T11:38:49;3.90;;;3.00;;
51216;SDS011;37283;49.760;8.648;2022-09-03T11:43:52;3.55;;;2.63;;
51216;SDS011;37283;49.760;8.648;2022-09-03T11:48:47;4.45;;;3.25;;
51216;SDS011;37283;49.760;8.648;2022-09-03T11:51:16;4.40;;;3.25;;
51216;SDS011;37283;49.760;8.648;2022-09-03T11:54:22;4.57;;;3.08;;
51216;SDS011;37283;49.760;8.648;2022-09-03T11:57:02;4.07;;;3.10;;
51216;SDS011;37283;49.760;8.648;2022-09-03T11:59:31;3.55;;;2.80;;
51216;SDS011;37283;49.760;8.648;2022-09-03T12:02:02;4.53;;;2.70;;
51216;SDS011;37283;49.760;8.648;2022-09-03T12:16:07;4.53;;;3.17;;
51216;SDS011;37283;49.760;8.648;2022-09-03T12:18:43;4.10;;;3.03;;
51216;SDS011;37283;49.760;8.648;2022-09-03T12:21:11;3.10;;;2.70;;
51216;SDS011;37283;49.760;8.648;2022-09-03T12:26:12;3.13;;;2.47;;
51216;SDS011;37283;49.760;8.648;2022-09-03T12:28:44;3.90;;;2.20;;
51216;SDS011;37283;49.760;8.648;2022-09-03T12:31:20;5.75;;;2.53;;
51216;SDS011;37283;49.760;8.648;2022-09-03T12:36:24;3.40;;;2.33;;
51216;SDS011;37283;49.760;8.648;2022-09-03T12:38:52;2.83;;;2.50;;
51216;SDS011;37283;49.760;8.648;2022-09-03T12:41:38;2.70;;;2.50;;
51216;SDS011;37283;49.760;8.648;2022-09-03T12:44:04;3.45;;;2.33;;
51216;SDS011;37283;49.760;8.648;2022-09-03T12:46:31;3.38;;;2.25;;
51216;SDS011;37283;49.760;8.648;2022-09-03T12:49:00;4.00;;;2.30;;
51216;SDS011;37283;49.760;8.648;2022-09-03T12:51:49;3.20;;;2.67;;
51216;SDS011;37283;49.760;8.648;2022-09-03T12:54:20;3.45;;;2.47;;
51216;SDS011;37283;49.760;8.648;2022-09-03T12:56:53;3.17;;;2.50;;
51216;SDS011;37283;49.760;8.648;2022-09-03T12:59:23;3.63;;;2.53;;
51216;SDS011;37283;49.760;8.648;2022-09-03T13:01:57;4.88;;;2.00;;
51216;SDS011;37283;49.760;8.648;2022-09-03T13:04:28;2.78;;;2.08;;
51216;SDS011;37283;49.760;8.648;2022-09-03T13:07:02;2.90;;;2.03;;
51216;SDS011;37283;49.760;8.648;2022-09-03T13:09:31;2.78;;;2.15;;
51216;SDS011;37283;49.760;8.648;2022-09-03T13:12:00;2.85;;;2.17;;
51216;SDS011;37283;49.760;8.648;2022-09-03T13:14:43;1.92;;;1.73;;
51216;SDS011;37283;49.760;8.648;2022-09-03T13:23:06;3.00;;;1.80;;
51216;SDS011;37283;49.760;8.648;2022-09-03T13:28:39;2.72;;;2.45;;
51216;SDS011;37283;49.760;8.648;2022-09-03T13:34:00;1.80;;;1.60;;
51216;SDS011;37283;49.760;8.648;2022-09-03T13:36:45;2.58;;;1.80;;
51216;SDS011;37283;49.760;8.648;2022-09-03T13:39:18;2.75;;;1.50;;
51216;SDS011;37283;49.760;8.648;2022-09-03T13:41:54;1.70;;;1.05;;
51216;SDS011;37283;49.760;8.648;2022-09-03T13:44:31;3.72;;;1.40;;
51216;SDS011;37283;49.760;8.648;2022-09-03T13:49:38;2.70;;;1.20;;
51216;SDS011;37283;49.760;8.648;2022-09-03T13:52:54;2.15;;;1.17;;
51216;SDS011;37283;49.760;8.648;2022-09-03T13:55:27;1.40;;;1.30;;
51216;SDS011;37283;49.760;8.648;2022-09-03T14:00:53;2.13;;;1.20;;
51216;SDS011;37283;49.760;8.648;2022-09-03T14:06:19;2.75;;;1.20;;
51216;SDS011;37283;49.760;8.648;2022-09-03T14:12:02;1.42;;;1.10;;
51216;SDS011;37283;49.760;8.648;2022-09-03T14:14:40;2.47;;;1.40;;
51216;SDS011;37283;49.760;8.648;2022-09-03T14:17:29;2.22;;;1.52;;
51216;SDS011;37283;49.760;8.648;2022-09-03T14:20:12;2.53;;;1.60;;
51216;SDS011;37283;49.760;8.648;2022-09-03T14:25:19;2.75;;;1.30;;
51216;SDS011;37283;49.760;8.648;2022-09-03T14:27:47;2.08;;;1.30;;
51216;SDS011;37283;49.760;8.648;2022-09-03T14:30:36;1.90;;;1.40;;
51216;SDS011;37283;49.760;8.648;2022-09-03T14:36:11;1.83;;;1.23;;
51216;SDS011;37283;49.760;8.648;2022-09-03T14:44:32;3.08;;;1.40;;
51216;SDS011;37283;49.760;8.648;2022-09-03T14:47:07;5.88;;;1.40;;
51216;SDS011;37283;49.760;8.648;2022-09-03T14:55:56;1.35;;;1.23;;
51216;SDS011;37283;49.760;8.648;2022-09-03T15:01:31;1.50;;;1.08;;
51216;SDS011;37283;49.760;8.648;2022-09-03T15:04:22;2.50;;;1.30;;
51216;SDS011;37283;49.760;8.648;2022-09-03T15:10:36;1.85;;;1.00;;
51216;SDS011;37283;49.760;8.648;2022-09-03T15:18:21;1.42;;;1.13;;
51216;SDS011;37283;49.760;8.648;2022-09-03T15:20:53;2.33;;;1.13;;
51216;SDS011;37283;49.760;8.648;2022-09-03T15:25:53;4.10;;;1.57;;
51216;SDS011;37283;49.760;8.648;2022-09-03T15:28:39;1.92;;;1.30;;
51216;SDS011;37283;49.760;8.648;2022-09-03T15:31:33;1.67;;;1.20;;
51216;SDS011;37283;49.760;8.648;2022-09-03T15:37:00;1.33;;;1.20;;
51216;SDS011;37283;49.760;8.648;2022-09-03T15:39:33;1.95;;;1.40;;
51216;SDS011;37283;49.760;8.648;2022-09-03T15:42:03;2.15;;;1.40;;
51216;SDS011;37283;49.760;8.648;2022-09-03T15:44:47;2.53;;;1.17;;
51216;SDS011;37283;49.760;8.648;2022-09-03T15:53:05;2.40;;;1.60;;
51216;SDS011;37283;49.760;8.648;2022-09-03T15:55:44;3.17;;;2.15;;
51216;SDS011;37283;49.760;8.648;2022-09-03T16:06:05;2.42;;;1.80;;
51216;SDS011;37283;49.760;8.648;2022-09-03T16:08:42;2.13;;;1.80;;
51216;SDS011;37283;49.760;8.648;2022-09-03T16:11:18;2.53;;;2.00;;
51216;SDS011;37283;49.760;8.648;2022-09-03T16:16:27;5.90;;;1.98;;
51216;SDS011;37283;49.760;8.648;2022-09-03T16:21:31;3.17;;;1.90;;
51216;SDS011;37283;49.760;8.648;2022-09-03T16:24:17;2.90;;;2.10;;
51216;SDS011;37283;49.760;8.648;2022-09-03T16:26:50;3.90;;;2.00;;
51216;SDS011;37283;49.760;8.648;2022-09-03T16:29:27;2.58;;;2.28;;
51216;SDS011;37283;49.760;8.648;2022-09-03T16:34:35;2.90;;;2.10;;
51216;SDS011;37283;49.760;8.648;2022-09-03T16:37:33;2.58;;;2.10;;
51216;SDS011;37283;49.760;8.648;2022-09-03T16:40:17;3.15;;;2.38;;
51216;SDS011;37283;49.760;8.648;2022-09-03T16:48:55;4.18;;;2.40;;
51216;SDS011;37283;49.760;8.648;2022-09-03T16:57:08;2.97;;;2.55;;
51216;SDS011;37283;49.760;8.648;2022-09-03T17:02:20;2.88;;;1.98;;
51216;SDS011;37283;49.760;8.648;2022-09-03T17:05:16;1.60;;;1.50;;
51216;SDS011;37283;49.760;8.648;2022-09-03T17:08:11;2.15;;;1.50;;
51216;SDS011;37283;49.760;8.648;2022-09-03T17:17:03;2.88;;;1.98;;
51216;SDS011;37283;49.760;8.648;2022-09-03T17:19:47;3.22;;;1.95;;
51216;SDS011;37283;49.760;8.648;2022-09-03T17:25:07;3.60;;;1.63;;
51216;SDS011;37283;49.760;8.648;2022-09-03T17:30:57;1.85;;;1.20;;
51216;SDS011;37283;49.760;8.648;2022-09-03T17:36:16;1.60;;;1.13;;
51216;SDS011;37283;49.760;8.648;2022-09-03T17:39:00;2.15;;;1.10;;
51216;SDS011;37283;49.760;8.648;2022-09-03T17:55:14;1.77;;;1.10;;
51216;SDS011;37283;49.760;8.648;2022-09-03T17:57:49;2.28;;;1.30;;
51216;SDS011;37283;49.760;8.648;2022-09-03T18:00:31;1.98;;;1.10;;
51216;SDS011;37283;49.760;8.648;2022-09-03T18:03:10;2.22;;;1.40;;
51216;SDS011;37283;49.760;8.648;2022-09-03T18:08:17;2.70;;;1.23;;
51216;SDS011;37283;49.760;8.648;2022-09-03T18:16:25;2.63;;;1.20;;
51216;SDS011;37283;49.760;8.648;2022-09-03T18:19:03;1.45;;;1.35;;
51216;SDS011;37283;49.760;8.648;2022-09-03T18:21:45;1.50;;;1.30;;
51216;SDS011;37283;49.760;8.648;2022-09-03T18:24:40;2.70;;;1.20;;
51216;SDS011;37283;49.760;8.648;2022-09-03T18:27:49;1.95;;;1.23;;
51216;SDS011;37283;49.760;8.648;2022-09-03T18:30:43;1.48;;;1.08;;
51216;SDS011;37283;49.760;8.648;2022-09-03T18:33:28;1.35;;;0.95;;
51216;SDS011;37283;49.760;8.648;2022-09-03T18:36:14;1.17;;;0.90;;
51216;SDS011;37283;49.760;8.648;2022-09-03T18:39:14;1.02;;;0.88;;
51216;SDS011;37283;49.760;8.648;2022-09-03T19:00:31;2.00;;;1.50;;
51216;SDS011;37283;49.760;8.648;2022-09-03T19:12:29;4.63;;;1.87;;
51216;SDS011;37283;49.760;8.648;2022-09-03T19:15:28;3.10;;;1.88;;
51216;SDS011;37283;49.760;8.648;2022-09-03T19:18:18;3.33;;;2.13;;
51216;SDS011;37283;49.760;8.648;2022-09-03T19:21:32;2.60;;;1.75;;
51216;SDS011;37283;49.760;8.648;2022-09-03T19:24:25;5.65;;;2.00;;
51216;SDS011;37283;49.760;8.648;2022-09-03T19:27:14;2.75;;;2.10;;
51216;SDS011;37283;49.760;8.648;2022-09-03T19:30:38;3.25;;;1.90;;
51216;SDS011;37283;49.760;8.648;2022-09-03T19:33:48;2.75;;;2.03;;
51216;SDS011;37283;49.760;8.648;2022-09-03T19:36:49;2.70;;;2.38;;
51216;SDS011;37283;49.760;8.648;2022-09-03T19:49:21;3.63;;;2.50;;
51216;SDS011;37283;49.760;8.648;2022-09-03T19:54:57;3.63;;;2.45;;
51216;SDS011;37283;49.760;8.648;2022-09-03T19:57:43;4.30;;;2.88;;
51216;SDS011;37283;49.760;8.648;2022-09-03T20:00:38;2.53;;;2.13;;
51216;SDS011;37283;49.760;8.648;2022-09-03T20:03:23;4.28;;;2.30;;
51216;SDS011;37283;49.760;8.648;2022-09-03T20:06:08;2.80;;;2.17;;
51216;SDS011;37283;49.760;8.648;2022-09-03T20:08:55;4.32;;;2.75;;
51216;SDS011;37283;49.760;8.648;2022-09-03T20:11:45;5.32;;;2.35;;
51216;SDS011;37283;49.760;8.648;2022-09-03T20:14:14;4.53;;;2.72;;
51216;SDS011;37283;49.760;8.648;2022-09-03T20:22:14;3.50;;;2.75;;
51216;SDS011;37283;49.760;8.648;2022-09-03T20:30:18;3.60;;;2.20;;
51216;SDS011;37283;49.760;8.648;2022-09-03T20:35:37;3.60;;;2.30;;
51216;SDS011;37283;49.760;8.648;2022-09-03T20:40:39;3.67;;;2.53;;
51216;SDS011;37283;49.760;8.648;2022-09-03T20:43:22;2.63;;;2.30;;
51216;SDS011;37283;49.760;8.648;2022-09-03T20:45:58;3.25;;;2.17;;
51216;SDS011;37283;49.760;8.648;2022-09-03T20:48:32;5.03;;;2.25;;
51216;SDS011;37283;49.760;8.648;2022-09-03T20:51:04;3.42;;;2.60;;
51216;SDS011;37283;49.760;8.648;2022-09-03T20:53:49;4.32;;;3.42;;